Time;durP1;ratioP1;P1;durP2;ratioP2;P2;SDS_P1;SDS_P2;PMS_P1;PMS_P2;Temp;Humidity;BMP_temperature;BMP_pressure;BME280_temperature;BME280_humidity;BME280_pressure;Samples;Min_cycle;Max_cycle;Signal;HPM_P1;HPM_P2
2023/02/22 00:01:46;;;;;;;11.60;2.90;;;;;;;3.15;89.75;100070.78;1712088;83;25684;-47
2023/02/22 00:04:06;;;;;;;11.75;4.30;;;;;;;3.11;89.79;100079.58;1710403;83;25544;-46
2023/02/22 00:06:33;;;;;;;8.83;3.30;;;;;;;3.06;89.70;100076.35;1712039;83;27331;-46
2023/02/22 00:09:01;;;;;;;9.65;3.22;;;;;;;3.01;89.65;100080.89;1711914;83;25605;-48
2023/02/22 00:11:30;;;;;;;8.25;2.95;;;;;;;2.95;89.68;100073.41;1712414;83;25569;-46
2023/02/22 00:13:56;;;;;;;13.88;3.80;;;;;;;2.90;89.59;100076.86;1711964;83;25662;-50
2023/02/22 00:16:25;;;;;;;9.70;2.85;;;;;;;2.85;89.49;100079.52;1712054;83;25410;-48
2023/02/22 00:18:54;;;;;;;6.78;2.62;;;;;;;2.78;89.52;100085.10;1712164;83;27292;-46
2023/02/22 00:21:21;;;;;;;9.20;2.77;;;;;;;2.70;89.48;100085.60;1712106;83;25629;-47
2023/02/22 00:23:49;;;;;;;13.45;3.67;;;;;;;2.68;89.52;100085.06;1711996;83;25452;-47
2023/02/22 00:26:22;;;;;;;13.43;3.40;;;;;;;2.63;89.50;100091.72;1711967;83;26224;-46
2023/02/22 00:28:52;;;;;;;9.63;3.72;;;;;;;2.57;89.46;100096.25;1712055;83;25414;-45
2023/02/22 00:31:21;;;;;;;7.22;3.58;;;;;;;2.52;89.49;100100.23;1712022;83;27332;-48
2023/02/22 00:33:47;;;;;;;10.75;4.10;;;;;;;2.47;89.54;100099.38;1711900;83;25620;-48
2023/02/22 00:36:14;;;;;;;11.22;4.37;;;;;;;2.41;89.47;100108.70;1711973;83;25145;-46
2023/02/22 00:38:41;;;;;;;11.60;4.08;;;;;;;2.37;89.47;100106.28;1712036;83;26459;-47
2023/02/22 00:41:08;;;;;;;15.35;6.87;;;;;;;2.34;89.55;100112.67;1712031;83;25407;-46
2023/02/22 00:43:35;;;;;;;14.58;5.03;;;;;;;2.27;89.39;100112.90;1712051;83;29513;-47
2023/02/22 00:46:02;;;;;;;12.40;7.58;;;;;;;2.22;89.46;100112.87;1711921;83;25418;-46
2023/02/22 00:48:28;;;;;;;14.87;13.32;;;;;;;2.16;89.37;100112.05;1712011;83;25554;-49
2023/02/22 00:50:55;;;;;;;12.15;7.22;;;;;;;2.11;89.34;100111.19;1711909;83;27835;-47
2023/02/22 00:53:24;;;;;;;25.57;23.52;;;;;;;2.04;89.38;100118.90;1711885;83;25569;-47
2023/02/22 00:55:51;;;;;;;17.85;16.25;;;;;;;1.98;89.28;100126.58;1712151;83;27307;-49
2023/02/22 00:58:18;;;;;;;36.10;33.35;;;;;;;1.91;89.24;100123.84;1711941;83;25585;-48
2023/02/22 01:00:46;;;;;;;17.27;15.58;;;;;;;1.83;89.22;100126.47;1711988;83;25575;-45
2023/02/22 01:03:16;;;;;;;17.32;10.82;;;;;;;1.79;89.21;100129.38;1711921;83;25684;-46
2023/02/22 01:05:44;;;;;;;20.77;18.92;;;;;;;1.73;89.25;100131.72;1712081;83;25662;-45
2023/02/22 01:08:14;;;;;;;12.82;6.37;;;;;;;1.65;89.35;100137.80;1711994;83;27326;-47
2023/02/22 01:10:41;;;;;;;9.38;4.60;;;;;;;1.61;89.37;100135.87;1711863;83;25684;-45
2023/02/22 01:13:10;;;;;;;11.93;7.85;;;;;;;1.55;89.77;100137.70;1711993;83;25434;-46
2023/02/22 01:15:41;;;;;;;13.08;9.93;;;;;;;1.52;89.81;100144.07;1699797;83;25664;-47
2023/02/22 01:18:10;;;;;;;15.75;12.30;;;;;;;1.47;90.06;100137.62;1711986;83;25454;-48
2023/02/22 01:20:38;;;;;;;11.90;7.37;;;;;;;1.48;90.50;100150.41;1712067;83;27365;-45
2023/02/22 01:23:07;;;;;;;58.28;54.13;;;;;;;1.46;90.78;100149.86;1711877;83;25631;-47
2023/02/22 01:25:35;;;;;;;14.90;13.13;;;;;;;1.47;90.99;100154.94;1711982;83;25581;-46
2023/02/22 01:28:05;;;;;;;20.50;18.70;;;;;;;1.47;91.15;100160.27;1711914;83;25639;-48
2023/02/22 01:30:35;;;;;;;10.25;8.53;;;;;;;1.50;91.26;100162.98;1711964;83;25407;-45
2023/02/22 01:33:06;;;;;;;15.25;11.38;;;;;;;1.52;91.55;100168.06;1711992;83;27412;-49
2023/02/22 01:35:39;;;;;;;54.45;50.50;;;;;;;1.53;92.04;100167.78;1711911;83;25577;-47
2023/02/22 01:38:05;;;;;;;62.45;57.53;;;;;;;1.56;92.32;100175.28;1711808;83;25475;-48
2023/02/22 01:40:40;;;;;;;9.23;4.05;;;;;;;1.58;92.59;100175.83;1711950;83;25692;-46
2023/02/22 01:43:28;;;;;;;15.28;5.08;;;;;;;1.60;92.64;100175.08;1712041;83;25621;-47
2023/02/22 01:46:03;;;;;;;13.65;5.25;;;;;;;1.60;92.61;100167.08;1711758;83;27469;-46
2023/02/22 01:48:44;;;;;;;15.75;5.00;;;;;;;1.61;92.52;100174.53;1710905;83;25615;-48
2023/02/22 01:51:15;;;;;;;16.10;9.95;;;;;;;1.59;92.40;100172.66;1711954;83;25434;-44
2023/02/22 01:54:05;;;;;;;11.78;7.72;;;;;;;1.56;92.25;100171.28;1711821;83;25688;-46
2023/02/22 01:56:34;;;;;;;;;;;;;;;1.52;92.15;100176.06;1639798;87;25492;-45
2023/02/22 01:59:05;;;;;;;56.28;51.77;;;;;;;1.48;92.19;100173.89;1637542;87;27397;-45
2023/02/22 02:01:35;;;;;;;18.25;10.28;;;;;;;1.45;92.30;100177.05;1681677;85;25627;-47
2023/02/22 02:04:05;;;;;;;;;;;;;;;1.42;92.29;100178.09;1682973;85;25602;-45
2023/02/22 02:06:34;;;;;;;11.80;3.83;;;;;;;1.40;92.41;100181.53;1677540;85;25628;-46
2023/02/22 02:09:41;;;;;;;10.75;4.08;;;;;;;1.39;92.61;100186.04;1677511;85;25646;-45
2023/02/22 02:12:11;;;;;;;11.10;4.00;;;;;;;1.37;92.62;100187.36;1677463;85;27360;-46
2023/02/22 02:14:41;;;;;;;12.50;4.05;;;;;;;1.37;92.92;100185.49;1677450;85;25512;-46
2023/02/22 02:17:13;;;;;;;;;;;;;;;1.38;93.13;100192.95;1679907;85;25606;-46
2023/02/22 02:20:19;;;;;;;7.62;3.00;;;;;;;1.38;93.33;100193.78;1677462;85;25556;-45
2023/02/22 02:23:41;;;;;;;38.55;35.68;;;;;;;1.39;93.45;100198.57;1677655;85;25671;-46
2023/02/22 02:26:38;;;;;;;11.63;9.90;;;;;;;1.41;93.64;100197.78;1677503;85;27278;-45
2023/02/22 02:29:50;;;;;;;36.77;34.25;;;;;;;1.43;93.77;100201.83;1677549;85;25457;-45
2023/02/22 02:32:44;;;;;;;12.63;9.60;;;;;;;1.46;93.96;100205.33;1694433;82;25546;-46
2023/02/22 02:35:30;;;;;;;62.00;57.27;;;;;;;1.51;94.06;100213.89;1748116;82;25616;-46
2023/02/22 02:38:20;;;;;;;44.95;41.33;;;;;;;1.52;94.18;100208.84;1733438;82;25560;-52
2023/02/22 02:40:58;;;;;;;80.97;75.32;;;;;;;1.56;94.25;100211.81;1730624;82;29519;-46
2023/02/22 02:43:46;;;;;;;39.63;36.40;;;;;;;1.57;94.34;100211.56;1732015;82;25635;-45
2023/02/22 02:46:30;;;;;;;9.90;2.98;;;;;;;1.62;94.30;100214.82;1733693;82;25413;-48
2023/02/22 02:49:01;;;;;;;7.40;3.52;;;;;;;1.64;94.36;100216.16;1733669;82;26371;-45
2023/02/22 02:51:33;;;;;;;11.78;3.47;;;;;;;1.66;94.34;100219.92;1711434;83;25525;-45
2023/02/22 02:54:01;;;;;;;12.07;6.15;;;;;;;1.69;94.32;100223.42;1712153;83;27343;-47
2023/02/22 02:56:29;;;;;;;34.50;31.37;;;;;;;1.71;94.32;100215.17;1714427;82;25627;-45
2023/02/22 02:58:56;;;;;;;80.10;73.95;;;;;;;1.73;94.33;100219.72;1751072;82;25596;-46
2023/02/22 03:01:46;;;;;;;51.95;48.40;;;;;;;1.75;94.31;100226.39;1750932;82;25631;-45
2023/02/22 03:04:32;;;;;;;4.65;4.25;;;;;;;1.76;94.30;100221.89;1750152;81;25401;-46
2023/02/22 03:07:28;;;;;;;14.33;12.18;;;;;;;1.78;94.32;100227.77;1715472;83;27328;-46
2023/02/22 03:10:12;;;;;;;70.35;65.22;;;;;;;1.78;94.30;100235.23;1715352;83;25607;-49
2023/02/22 03:13:06;;;;;;;77.32;72.03;;;;;;;1.79;94.32;100232.85;1714705;83;25475;-46
2023/02/22 03:15:40;;;;;;;75.67;70.60;;;;;;;1.80;94.29;100237.11;1750297;82;27818;-47
2023/02/22 03:18:28;;;;;;;81.65;75.87;;;;;;;1.82;94.29;100242.20;1750350;82;25458;-44
2023/02/22 03:21:09;;;;;;;79.50;74.17;;;;;;;1.82;94.41;100230.20;1748500;82;29509;-46
2023/02/22 03:23:56;;;;;;;80.32;74.60;;;;;;;1.83;94.46;100241.16;1750950;82;25608;-46
2023/02/22 03:26:45;;;;;;;78.15;72.75;;;;;;;1.85;94.53;100245.70;1750970;81;25490;-46
2023/02/22 03:29:15;;;;;;;77.15;71.62;;;;;;;1.85;94.47;100249.70;1750915;82;25732;-47
2023/02/22 03:32:01;;;;;;;78.42;72.87;;;;;;;1.86;94.59;100249.45;1715363;83;25393;-47
2023/02/22 03:34:36;;;;;;;79.40;73.75;;;;;;;1.87;94.56;100255.58;1714474;83;27380;-45
2023/02/22 03:37:13;;;;;;;80.00;74.58;;;;;;;1.88;94.65;100261.20;1716325;83;25414;-49
2023/02/22 03:39:38;;;;;;;70.20;65.40;;;;;;;1.90;94.70;100260.96;1715181;82;25548;-46
2023/02/22 03:42:09;;;;;;;4.25;2.00;;;;;;;1.91;94.76;100258.05;1715346;82;26402;-46
2023/02/22 03:44:39;;;;;;;3.55;2.35;;;;;;;1.93;94.78;100267.93;1713357;83;25632;-46
2023/02/22 03:47:11;;;;;;;5.97;2.42;;;;;;;1.93;94.70;100273.27;1713075;83;27386;-46
2023/02/22 03:49:54;;;;;;;5.17;2.80;;;;;;;1.95;94.68;100270.34;1711974;83;25556;-47
2023/02/22 03:52:22;;;;;;;4.28;2.50;;;;;;;1.94;94.51;100272.73;1751043;82;25464;-46
2023/02/22 03:54:53;;;;;;;5.75;2.65;;;;;;;1.94;94.54;100271.39;1709426;83;26160;-48
2023/02/22 03:57:28;;;;;;;4.75;2.42;;;;;;;1.94;94.48;100276.73;1712064;83;25616;-47
2023/02/22 03:59:55;;;;;;;4.03;2.08;;;;;;;1.93;94.26;100275.93;1712168;83;27892;-49
2023/02/22 04:02:22;;;;;;;6.28;2.50;;;;;;;1.93;94.30;100287.94;1711988;83;25426;-45
2023/02/22 04:04:50;;;;;;;4.58;2.70;;;;;;;1.93;94.20;100284.47;1712041;83;25588;-44
2023/02/22 04:07:18;;;;;;;5.95;2.60;;;;;;;1.92;94.08;100285.52;1711942;83;25581;-45
2023/02/22 04:09:46;;;;;;;3.25;2.10;;;;;;;1.90;93.96;100286.30;1711976;83;25487;-44
2023/02/22 04:12:13;;;;;;;4.90;2.20;;;;;;;1.89;93.74;100288.68;1712025;83;27360;-47
2023/02/22 04:14:40;;;;;;;4.47;2.83;;;;;;;1.89;93.66;100290.02;1711927;83;25739;-46
2023/02/22 04:17:06;;;;;;;5.53;4.10;;;;;;;1.84;93.20;100293.45;1712007;83;25520;-47
2023/02/22 04:19:33;;;;;;;4.35;2.12;;;;;;;1.80;92.90;100299.79;1711982;83;25625;-46
2023/02/22 04:21:59;;;;;;;6.87;5.95;;;;;;;1.78;92.87;100298.44;1712009;83;25487;-47
2023/02/22 04:24:25;;;;;;;3.72;3.10;;;;;;;1.76;92.83;100296.02;1711955;83;27433;-45
2023/02/22 04:26:51;;;;;;;6.20;3.90;;;;;;;1.75;92.63;100302.41;1711887;83;25449;-45
2023/02/22 04:29:19;;;;;;;5.10;4.60;;;;;;;1.74;92.64;100307.98;1711992;83;25618;-45
2023/02/22 04:31:47;;;;;;;3.62;2.52;;;;;;;1.73;92.47;100311.19;1711879;83;27887;-44
2023/02/22 04:34:13;;;;;;;3.08;1.85;;;;;;;1.71;92.30;100310.63;1712030;83;25666;-46
2023/02/22 04:36:41;;;;;;;2.60;2.05;;;;;;;1.70;92.06;100309.02;1712017;83;27832;-46
2023/02/22 04:39:07;;;;;;;4.95;3.08;;;;;;;1.67;91.86;100313.53;1711854;83;25358;-46
2023/02/22 04:41:33;;;;;;;4.08;2.50;;;;;;;1.66;91.81;100318.04;1712037;83;25493;-46
2023/02/22 04:44:00;;;;;;;7.28;3.77;;;;;;;1.65;91.71;100319.63;1711892;83;25683;-45
2023/02/22 04:46:26;;;;;;;3.22;2.10;;;;;;;1.64;91.73;100322.82;1711980;83;25412;-45
2023/02/22 04:48:54;;;;;;;3.17;2.35;;;;;;;1.64;91.69;100318.02;1712016;83;27336;-44
2023/02/22 04:51:22;;;;;;;4.05;2.58;;;;;;;1.62;91.75;100320.94;1711845;83;27219;-45
2023/02/22 04:53:50;;;;;;;3.80;3.42;;;;;;;1.63;91.85;100319.06;1711957;83;25402;-45
2023/02/22 04:56:20;;;;;;;9.18;8.58;;;;;;;1.62;91.81;100314.80;1711787;83;25543;-45
2023/02/22 04:58:46;;;;;;;14.83;13.72;;;;;;;1.61;91.69;100318.52;1711860;83;25593;-45
2023/02/22 05:01:16;;;;;;;21.93;20.60;;;;;;;1.61;91.63;100326.52;1711698;83;27427;-47
2023/02/22 05:03:44;;;;;;;24.12;22.58;;;;;;;1.58;91.42;100333.67;1711641;83;25711;-46
2023/02/22 05:06:11;;;;;;;38.98;36.50;;;;;;;1.56;91.33;100327.25;1711686;83;25572;-45
2023/02/22 05:08:38;;;;;;;27.85;26.23;;;;;;;1.55;91.21;100324.83;1711709;83;25688;-46
2023/02/22 05:11:05;;;;;;;79.90;74.37;;;;;;;1.53;91.22;100326.41;1711657;83;25440;-45
2023/02/22 05:13:32;;;;;;;66.95;62.58;;;;;;;1.53;91.11;100333.61;1711781;83;27430;-45
2023/02/22 05:15:58;;;;;;;31.23;29.05;;;;;;;1.51;90.96;100325.06;1711629;83;25664;-47
2023/02/22 05:18:24;;;;;;;3.92;2.92;;;;;;;1.51;90.81;100336.52;1711665;83;25442;-46
2023/02/22 05:20:52;;;;;;;4.75;3.30;;;;;;;1.48;90.53;100339.67;1711608;83;25616;-44
2023/02/22 05:23:18;;;;;;;4.33;3.10;;;;;;;1.47;90.48;100342.88;1711673;83;25439;-46
2023/02/22 05:25:44;;;;;;;3.33;3.00;;;;;;;1.47;90.45;100343.41;1711688;83;27156;-47
2023/02/22 05:28:14;;;;;;;4.12;2.50;;;;;;;1.47;90.31;100346.88;1711568;83;25696;-50
2023/02/22 05:30:42;;;;;;;3.37;2.72;;;;;;;1.47;90.11;100354.88;1711791;83;25574;-46
2023/02/22 05:33:10;;;;;;;4.17;3.05;;;;;;;1.47;89.91;100351.41;1711636;83;25615;-47
2023/02/22 05:35:36;;;;;;;5.60;2.77;;;;;;;1.48;89.74;100359.16;1711695;83;25435;-45
2023/02/22 05:38:05;;;;;;;5.00;2.95;;;;;;;1.48;89.97;100357.83;1711681;83;27344;-46
2023/02/22 05:40:33;;;;;;;5.10;3.20;;;;;;;1.51;90.08;100365.05;1711827;83;25469;-45
2023/02/22 05:43:01;;;;;;;4.90;3.40;;;;;;;1.53;90.06;100369.06;1711681;83;25482;-47
2023/02/22 05:45:29;;;;;;;5.35;3.72;;;;;;;1.53;90.03;100369.06;1711625;83;25612;-47
2023/02/22 05:47:57;;;;;;;13.00;6.47;;;;;;;1.58;89.96;100370.46;1711654;83;25453;-47
2023/02/22 05:50:25;;;;;;;9.45;5.12;;;;;;;1.59;89.65;100373.95;1711641;83;27343;-46
2023/02/22 05:52:53;;;;;;;7.97;4.35;;;;;;;1.60;89.70;100377.71;1711554;83;25552;-46
2023/02/22 05:55:23;;;;;;;6.22;4.37;;;;;;;1.61;89.72;100375.31;1712759;83;25380;-45
2023/02/22 05:57:53;;;;;;;7.42;3.35;;;;;;;1.63;89.53;100375.06;1715483;83;26154;-46
2023/02/22 06:00:25;;;;;;;3.83;2.60;;;;;;;1.63;89.58;100375.86;1715836;83;25656;-47
2023/02/22 06:03:06;;;;;;;4.53;3.22;;;;;;;1.65;89.44;100379.11;1707239;83;27949;-45
2023/02/22 06:05:36;;;;;;;5.67;3.35;;;;;;;1.65;89.39;100383.62;1750835;82;25709;-47
2023/02/22 06:08:08;;;;;;;4.50;3.02;;;;;;;1.67;89.42;100386.87;1750819;82;25482;-46
2023/02/22 06:10:35;;;;;;;6.85;3.20;;;;;;;1.66;89.34;100387.38;1750781;82;25806;-50
2023/02/22 06:13:04;;;;;;;5.05;2.58;;;;;;;1.67;89.23;100393.00;1707373;82;25628;-46
2023/02/22 06:15:32;;;;;;;4.85;2.70;;;;;;;1.67;89.15;100396.20;1707495;84;27380;-46
2023/02/22 06:18:01;;;;;;;5.28;2.70;;;;;;;1.67;89.09;100402.33;1707234;84;25649;-46
2023/02/22 06:20:29;;;;;;;3.02;2.37;;;;;;;1.67;89.25;100403.66;1707345;83;25645;-47
2023/02/22 06:22:58;;;;;;;3.67;2.40;;;;;;;1.71;89.36;100406.64;1750763;82;26390;-48
2023/02/22 06:25:33;;;;;;;4.43;2.60;;;;;;;1.72;89.21;100405.59;1751095;82;25411;-45
2023/02/22 06:28:00;;;;;;;4.45;2.45;;;;;;;1.71;88.89;100407.97;1748979;82;27355;-46
2023/02/22 06:30:29;;;;;;;4.15;2.45;;;;;;;1.72;88.90;100411.44;1750718;82;25449;-46
2023/02/22 06:32:57;;;;;;;7.42;3.60;;;;;;;1.71;88.52;100419.17;1750900;82;25653;-47
2023/02/22 06:35:23;;;;;;;8.10;6.92;;;;;;;1.71;88.61;100423.18;1707328;83;25658;-46
2023/02/22 06:37:49;;;;;;;63.17;58.90;;;;;;;1.70;88.54;100426.88;1750785;82;25409;-45
2023/02/22 06:40:17;;;;;;;81.60;75.83;;;;;;;1.70;88.50;100429.55;1750710;81;27360;-48
2023/02/22 06:42:48;;;;;;;78.78;73.45;;;;;;;1.70;88.52;100437.55;1750654;82;25402;-46
2023/02/22 06:45:17;;;;;;;41.02;38.08;;;;;;;1.69;88.26;100436.75;1750785;82;25571;-47
2023/02/22 06:47:48;;;;;;;28.15;26.30;;;;;;;1.69;88.12;100443.42;1750765;82;26237;-45
2023/02/22 06:50:28;;;;;;;79.40;73.92;;;;;;;1.70;87.98;100442.88;1707391;84;25383;-46
2023/02/22 06:52:57;;;;;;;79.20;73.80;;;;;;;1.69;87.63;100447.42;1750846;81;27347;-46
2023/02/22 06:55:28;;;;;;;78.37;73.10;;;;;;;1.70;87.70;100451.69;1748297;82;25439;-45
2023/02/22 06:57:55;;;;;;;78.40;73.20;;;;;;;1.70;87.60;100450.89;1740310;82;25553;-46
2023/02/22 07:00:26;;;;;;;78.33;72.85;;;;;;;1.72;87.67;100455.44;1729449;82;25602;-46
2023/02/22 07:02:55;;;;;;;80.57;75.08;;;;;;;1.70;87.36;100458.89;1740232;82;25474;-46
2023/02/22 07:05:26;;;;;;;78.55;73.35;;;;;;;1.70;87.12;100462.89;1729575;82;28042;-47
2023/02/22 07:07:57;;;;;;;4.78;2.40;;;;;;;1.70;87.13;100458.89;1733297;82;25446;-46
2023/02/22 07:10:28;;;;;;;53.58;50.05;;;;;;;1.70;86.95;100467.69;1727035;82;25450;-46
2023/02/22 07:12:55;;;;;;;80.25;74.80;;;;;;;1.72;86.86;100466.94;1733088;82;25775;-48
2023/02/22 07:15:26;;;;;;;5.90;5.30;;;;;;;1.72;86.67;100468.77;1737020;82;25494;-49
2023/02/22 07:17:55;;;;;;;50.63;47.25;;;;;;;1.73;86.78;100460.53;1709534;83;27397;-45
2023/02/22 07:20:25;;;;;;;77.30;72.03;;;;;;;1.73;86.65;100467.20;1712599;83;25535;-45
2023/02/22 07:22:53;;;;;;;78.65;73.37;;;;;;;1.74;86.53;100471.49;1712416;83;25633;-46
2023/02/22 07:25:23;;;;;;;79.50;74.07;;;;;;;1.76;86.43;100474.72;1740068;81;25672;-44
2023/02/22 07:27:53;;;;;;;78.28;72.87;;;;;;;1.77;86.12;100477.67;1730716;82;25555;-48
2023/02/22 07:30:32;;;;;;;77.97;72.78;;;;;;;1.81;86.42;100477.45;1740362;82;28114;-47
2023/02/22 07:33:03;;;;;;;;;;;;;;;1.83;86.32;100479.34;1736035;82;25572;-45
2023/02/22 07:35:36;;;;;;;77.78;72.67;;;;;;;1.89;86.27;100482.08;1726469;82;25599;-47
2023/02/22 07:38:07;;;;;;;80.80;75.40;;;;;;;1.88;85.79;100475.94;1740318;82;25669;-46
2023/02/22 07:40:36;;;;;;;78.25;73.05;;;;;;;1.91;85.50;100469.30;1729774;82;25629;-48
2023/02/22 07:43:13;;;;;;;57.23;53.30;;;;;;;1.91;85.43;100466.12;1740408;82;27953;-47
2023/02/22 07:45:41;;;;;;;77.30;72.00;;;;;;;1.96;85.47;100468.02;1727041;82;25604;-46
2023/02/22 07:48:11;;;;;;;79.65;74.10;;;;;;;1.99;85.39;100464.87;1714576;83;25476;-46
2023/02/22 07:50:40;;;;;;;65.60;61.00;;;;;;;2.02;85.30;100469.19;1735870;82;25675;-46
2023/02/22 07:53:21;;;;;;;57.40;53.45;;;;;;;2.08;85.15;100470.58;1721494;82;25600;-46
2023/02/22 07:55:49;;;;;;;77.92;72.82;;;;;;;2.12;84.91;100473.05;1736893;81;27335;-49
2023/02/22 07:58:22;;;;;;;77.22;72.12;;;;;;;2.15;84.75;100475.23;1752697;81;25475;-46
2023/02/22 08:00:48;;;;;;;79.72;74.42;;;;;;;2.20;84.67;100477.42;1740579;82;25397;-48
2023/02/22 08:03:20;;;;;;;79.50;74.10;;;;;;;2.24;84.61;100473.19;1740512;82;26193;-46
2023/02/22 08:05:51;;;;;;;77.95;72.67;;;;;;;2.30;84.24;100478.08;1745723;82;25413;-47
2023/02/22 08:08:19;;;;;;;78.57;73.28;;;;;;;2.35;83.53;100480.81;1740611;82;27385;-46
2023/02/22 08:10:47;;;;;;;79.40;74.20;;;;;;;2.36;83.14;100478.94;1740416;82;25632;-48
2023/02/22 08:13:16;;;;;;;;;;;;;;;2.41;83.23;100478.45;1746343;81;25638;-46
2023/02/22 08:15:45;;;;;;;79.30;74.00;;;;;;;2.45;82.89;100477.42;1740449;82;25687;-49
2023/02/22 08:18:15;;;;;;;;;;;;;;;2.49;82.43;100478.55;1743141;82;25592;-46
2023/02/22 08:20:47;;;;;;;76.33;71.33;;;;;;;2.54;82.66;100475.94;1740567;82;27337;-46
2023/02/22 08:23:18;;;;;;;76.53;71.42;;;;;;;2.59;82.48;100480.54;1740587;81;25465;-47
2023/02/22 08:25:46;;;;;;;77.82;72.62;;;;;;;2.67;82.14;100481.41;1740595;82;25588;-45
2023/02/22 08:28:18;;;;;;;76.25;71.25;;;;;;;2.76;82.44;100485.79;1740479;82;25689;-49
2023/02/22 08:30:47;;;;;;;75.55;70.55;;;;;;;2.83;82.13;100484.22;1740705;82;25159;-48
2023/02/22 08:33:18;;;;;;;55.28;51.65;;;;;;;2.92;82.33;100494.75;1740809;81;28044;-47
2023/02/22 08:35:51;;;;;;;80.65;75.22;;;;;;;3.04;82.17;100493.26;1742202;82;25704;-45
2023/02/22 08:38:26;;;;;;;2.52;1.80;;;;;;;3.12;81.49;100494.14;1740694;82;25650;-48
2023/02/22 08:41:00;;;;;;;5.22;2.92;;;;;;;3.19;81.21;100489.38;1740698;82;26706;-47
2023/02/22 08:43:35;;;;;;;7.15;2.45;;;;;;;3.32;81.46;100494.81;1750954;82;25630;-47
2023/02/22 08:46:05;;;;;;;8.05;7.25;;;;;;;3.43;80.38;100495.72;1740560;82;27971;-46
2023/02/22 08:48:35;;;;;;;4.87;2.75;;;;;;;3.55;80.44;100499.81;1740383;82;25425;-46
2023/02/22 08:51:02;;;;;;;7.92;7.17;;;;;;;3.68;80.49;100498.57;1740360;82;25464;-48
2023/02/22 08:53:31;;;;;;;10.05;9.33;;;;;;;3.81;80.34;100504.53;1740457;82;26237;-46
2023/02/22 08:56:06;;;;;;;16.30;15.15;;;;;;;3.87;79.36;100505.64;1739494;82;25585;-49
2023/02/22 08:58:40;;;;;;;39.03;36.33;;;;;;;3.93;78.75;100509.97;1734869;82;28000;-47
2023/02/22 09:01:06;;;;;;;26.17;24.35;;;;;;;3.97;78.18;100514.78;1733213;82;25638;-47
2023/02/22 09:03:37;;;;;;;6.42;4.20;;;;;;;3.99;77.57;100516.15;1733914;82;25558;-49
2023/02/22 09:06:08;;;;;;;6.58;5.83;;;;;;;4.04;77.37;100520.73;1732902;82;25628;-48
2023/02/22 09:08:34;;;;;;;64.35;60.23;;;;;;;4.04;77.08;100516.72;1732100;82;25558;-46
2023/02/22 09:11:02;;;;;;;35.63;33.20;;;;;;;4.07;77.05;100523.69;1734343;82;27324;-47
2023/02/22 09:13:38;;;;;;;5.62;2.90;;;;;;;4.10;76.57;100529.88;1733069;82;25526;-48
2023/02/22 09:16:09;;;;;;;7.25;5.20;;;;;;;4.15;76.55;100526.94;1733161;82;25225;-47
2023/02/22 09:18:46;;;;;;;9.08;4.05;;;;;;;4.21;76.77;100525.91;1712128;83;25723;-48
2023/02/22 09:21:21;;;;;;;6.37;4.08;;;;;;;4.26;76.78;100527.27;1710123;83;25186;-48
2023/02/22 09:23:48;;;;;;;6.22;3.98;;;;;;;4.29;76.49;100531.56;1708650;83;28053;-45
2023/02/22 09:26:17;;;;;;;5.47;3.40;;;;;;;4.27;75.41;100531.55;1711559;83;25744;-48
2023/02/22 09:28:50;;;;;;;12.28;8.63;;;;;;;4.22;74.88;100529.67;1711978;83;25795;-45
2023/02/22 09:31:16;;;;;;;8.68;7.03;;;;;;;4.18;74.72;100530.44;1712743;83;27822;-46
2023/02/22 09:33:45;;;;;;;8.58;5.97;;;;;;;4.14;74.70;100530.67;1711933;83;25422;-49
2023/02/22 09:36:20;;;;;;;9.60;6.83;;;;;;;4.12;74.59;100536.31;1710783;83;27342;-45
2023/02/22 09:38:47;;;;;;;9.25;7.75;;;;;;;4.06;74.19;100535.45;1745580;79;25583;-48
2023/02/22 09:41:31;;;;;;;8.18;6.20;;;;;;;4.01;74.27;100538.10;1774397;80;25511;-46
2023/02/22 09:44:20;;;;;;;8.53;7.40;;;;;;;3.98;73.88;100538.61;1774799;80;25701;-46
2023/02/22 09:46:53;;;;;;;10.13;6.22;;;;;;;3.93;73.92;100540.75;1774535;80;25646;-48
2023/02/22 09:49:46;;;;;;;7.75;6.42;;;;;;;3.90;73.37;100545.81;1774126;80;29508;-46
2023/02/22 09:52:24;;;;;;;8.38;5.37;;;;;;;3.85;73.33;100549.80;1773704;80;27426;-46
2023/02/22 09:54:54;;;;;;;;;;;;;;;3.78;73.20;100543.33;1777169;80;25608;-48
2023/02/22 09:57:39;;;;;;;10.13;5.25;;;;;;;3.72;73.01;100541.13;1774492;80;25611;-47
2023/02/22 10:00:19;;;;;;;8.80;5.87;;;;;;;3.68;73.21;100541.92;1774772;80;25561;-46
2023/02/22 10:03:02;;;;;;;7.10;5.50;;;;;;;3.62;72.72;100551.75;1774561;80;27591;-48
2023/02/22 10:05:42;;;;;;;7.85;6.53;;;;;;;3.50;72.73;100547.12;1775058;80;25744;-48
2023/02/22 10:08:22;;;;;;;9.30;5.95;;;;;;;3.37;72.27;100549.67;1775045;80;25545;-48
2023/02/22 10:10:57;;;;;;;8.70;6.00;;;;;;;3.24;72.23;100550.91;1775065;80;25631;-46
2023/02/22 10:14:00;;;;;;;7.90;6.05;;;;;;;3.12;72.61;100562.30;1767827;80;25575;-48
2023/02/22 10:16:48;;;;;;;10.68;6.33;;;;;;;3.04;72.82;100568.89;1775111;80;27261;-47
2023/02/22 10:19:47;;;;;;;8.60;5.60;;;;;;;2.95;72.73;100574.42;1775038;80;25202;-47
2023/02/22 10:22:59;;;;;;;10.35;6.58;;;;;;;2.85;72.88;100571.64;1775220;80;25459;-48
2023/02/22 10:25:35;;;;;;;12.60;7.33;;;;;;;2.70;72.92;100573.06;1775087;80;26193;-47
2023/02/22 10:28:29;;;;;;;11.38;7.85;;;;;;;2.61;73.22;100568.69;1775099;80;25571;-48
2023/02/22 10:31:08;;;;;;;12.55;6.47;;;;;;;2.52;73.11;100579.54;1775056;80;27402;-46
2023/02/22 10:33:48;;;;;;;11.70;7.33;;;;;;;2.41;73.25;100582.59;1774999;80;25401;-46
2023/02/22 10:36:27;;;;;;;9.45;5.72;;;;;;;2.35;73.53;100586.27;1775119;80;25558;-47
2023/02/22 10:39:00;;;;;;;11.33;6.33;;;;;;;2.32;73.97;100582.74;1773841;80;26428;-47
2023/02/22 10:41:38;;;;;;;11.93;5.17;;;;;;;2.30;73.93;100585.36;1771532;80;25405;-48
2023/02/22 10:44:10;;;;;;;11.25;5.53;;;;;;;2.24;73.83;100583.16;1775032;80;27400;-49
2023/02/22 10:46:39;;;;;;;13.10;8.00;;;;;;;;;;1775038;80;25755;-48
2023/02/22 10:49:11;;;;;;;10.25;5.83;;;;;;;2.18;73.57;100588.14;1775171;80;25463;-46
2023/02/22 10:51:48;;;;;;;11.83;6.75;;;;;;;2.11;73.41;100587.00;1775113;80;25612;-47
2023/02/22 10:54:31;;;;;;;12.45;7.25;;;;;;;2.08;73.38;100595.49;1775184;80;25404;-47
2023/02/22 10:57:04;;;;;;;14.58;5.58;;;;;;;2.06;73.56;100585.59;1775308;80;27015;-48
2023/02/22 10:59:42;;;;;;;13.15;6.60;;;;;;;2.06;73.75;100585.59;1775185;80;25587;-47
2023/02/22 11:02:25;;;;;;;18.35;9.05;;;;;;;2.07;73.85;100590.40;1775243;80;25645;-46
2023/02/22 11:05:01;;;;;;;12.33;7.78;;;;;;;2.07;73.48;100591.73;1775238;80;27627;-46
2023/02/22 11:07:35;;;;;;;13.98;8.45;;;;;;;2.06;72.95;100589.59;1775156;80;25639;-47
2023/02/22 11:10:10;;;;;;;10.30;6.60;;;;;;;2.06;73.18;100578.92;1775205;80;29595;-48
2023/02/22 11:12:47;;;;;;;12.45;8.38;;;;;;;2.08;72.91;100586.16;1775075;80;27152;-47
2023/02/22 11:15:30;;;;;;;13.05;8.43;;;;;;;2.07;72.50;100583.19;1775226;80;25663;-48
2023/02/22 11:18:00;;;;;;;14.80;9.75;;;;;;;2.05;72.35;100583.97;1775141;80;25631;-48
2023/02/22 11:20:37;;;;;;;13.55;7.40;;;;;;;2.05;72.35;100587.44;1775225;80;25544;-46
2023/02/22 11:23:11;;;;;;;13.58;9.38;;;;;;;2.05;72.08;100583.44;1730451;80;28279;-49
2023/02/22 11:25:43;;;;;;;14.23;7.78;;;;;;;2.05;71.82;100585.30;1775124;80;25691;-48
2023/02/22 11:28:29;;;;;;;12.68;10.58;;;;;;;2.03;71.54;100582.87;1775274;80;25554;-45
2023/02/22 11:30:53;;;;;;;11.93;7.75;;;;;;;1.99;71.30;100582.27;1771023;80;25610;-46
2023/02/22 11:33:28;;;;;;;11.33;7.40;;;;;;;1.99;71.50;100590.27;1775175;80;25445;-45
2023/02/22 11:36:04;;;;;;;21.80;20.08;;;;;;;1.97;71.54;100586.51;1775174;80;27378;-47
2023/02/22 11:38:39;;;;;;;32.35;29.90;;;;;;;2.00;71.47;100591.90;1767471;80;25817;-48
2023/02/22 11:41:35;;;;;;;18.25;16.45;;;;;;;2.02;71.35;100587.13;1791315;80;25564;-46
2023/02/22 11:44:35;;;;;;;30.40;28.00;;;;;;;2.02;71.35;100590.59;1754302;81;26817;-48
2023/02/22 11:47:12;;;;;;;40.25;37.15;;;;;;;2.04;71.48;100591.17;1792017;80;25441;-47
2023/02/22 11:49:46;;;;;;;22.75;20.65;;;;;;;2.08;71.35;100592.83;1792061;80;27353;-50
2023/02/22 11:52:37;;;;;;;24.87;22.17;;;;;;;2.06;71.02;100590.93;1791921;80;26097;-46
2023/02/22 11:55:23;;;;;;;45.48;42.35;;;;;;;2.04;70.70;100588.50;1790672;80;25472;-47